createdAt,value
2022-09-24T00:01:41.186Z,11.14
2022-09-24T00:04:11.772Z,11.13
2022-09-24T00:06:44.994Z,11.08
2022-09-24T00:09:17.688Z,11.07
2022-09-24T00:11:45.799Z,11.01
2022-09-24T00:14:13.564Z,10.92
2022-09-24T00:16:42.823Z,11.05
2022-09-24T00:19:10.831Z,11.03
2022-09-24T00:21:39.283Z,11.05
2022-09-24T00:24:35.672Z,11.05
2022-09-24T00:27:04.278Z,11.00
2022-09-24T00:29:34.547Z,10.74
2022-09-24T00:32:02.767Z,11.02
2022-09-24T00:34:30.064Z,10.92
2022-09-24T00:36:57.149Z,10.99
2022-09-24T00:39:24.236Z,10.79
2022-09-24T00:41:51.397Z,10.97
2022-09-24T00:44:46.266Z,10.97
2022-09-24T00:47:29.031Z,10.99
2022-09-24T00:50:21.857Z,10.80
2022-09-24T00:53:01.488Z,11.00
2022-09-24T00:55:28.948Z,10.76
2022-09-24T00:57:59.770Z,11.00
2022-09-24T01:00:27.322Z,10.99
2022-09-24T01:03:01.122Z,10.83
2022-09-24T01:05:29.670Z,10.95
2022-09-24T01:07:58.396Z,10.94
2022-09-24T01:10:49.357Z,10.98
2022-09-24T01:13:25.327Z,10.95
2022-09-24T01:16:16.132Z,10.93
2022-09-24T01:19:01.157Z,10.92
2022-09-24T01:21:54.428Z,10.89
2022-09-24T01:24:30.151Z,10.87
2022-09-24T01:27:20.339Z,10.84
2022-09-24T01:30:02.000Z,10.51
2022-09-24T01:32:38.463Z,10.83
2022-09-24T01:35:17.173Z,10.84
2022-09-24T01:37:49.902Z,10.79
2022-09-24T01:40:19.318Z,10.50
2022-09-24T01:42:46.664Z,10.86
2022-09-24T01:45:15.009Z,10.24
2022-09-24T01:47:42.416Z,10.82
2022-09-24T01:50:12.691Z,10.00
2022-09-24T01:52:46.320Z,10.86
2022-09-24T01:55:17.321Z,10.84
2022-09-24T01:57:49.825Z,10.80
2022-09-24T02:00:21.873Z,10.80
2022-09-24T02:03:09.207Z,10.79
2022-09-24T02:05:55.363Z,10.79
2022-09-24T02:08:25.189Z,10.52
2022-09-24T02:11:08.490Z,10.78
2022-09-24T02:13:42.270Z,10.63
2022-09-24T02:16:15.225Z,10.47
2022-09-24T02:18:47.187Z,10.72
2022-09-24T02:21:17.053Z,10.75
2022-09-24T02:24:02.558Z,10.73
2022-09-24T02:26:30.023Z,10.76
2022-09-24T02:28:59.370Z,10.74
2022-09-24T02:31:32.796Z,10.47
2022-09-24T02:34:22.740Z,9.92
2022-09-24T02:36:55.560Z,10.44
2022-09-24T02:39:22.977Z,10.24
2022-09-24T02:41:52.037Z,10.72
2022-09-24T02:44:19.638Z,10.68
2022-09-24T02:46:47.834Z,10.74
2022-09-24T02:49:15.648Z,10.71
2022-09-24T02:51:43.509Z,10.77
2022-09-24T02:54:11.611Z,10.62
2022-09-24T02:56:39.350Z,10.80
2022-09-24T02:59:06.959Z,10.82
2022-09-24T03:01:35.224Z,10.77
2022-09-24T03:04:02.862Z,10.81
2022-09-24T03:06:30.866Z,10.80
2022-09-24T03:08:58.249Z,10.80
2022-09-24T03:11:25.981Z,10.70
2022-09-24T03:13:53.227Z,10.77
2022-09-24T03:16:20.671Z,10.73
2022-09-24T03:18:48.417Z,10.73
2022-09-24T03:21:18.930Z,10.73
2022-09-24T03:23:46.812Z,10.70
2022-09-24T03:26:14.760Z,10.67
2022-09-24T03:28:42.308Z,10.70
2022-09-24T03:31:10.120Z,10.69
2022-09-24T03:33:44.862Z,10.64
2022-09-24T03:36:23.670Z,10.61
2022-09-24T03:38:56.769Z,10.63
2022-09-24T03:41:27.961Z,10.60
2022-09-24T03:43:55.928Z,10.63
2022-09-24T03:46:30.160Z,10.04
2022-09-24T03:48:59.455Z,10.63
2022-09-24T03:51:26.537Z,10.61
2022-09-24T03:53:53.691Z,10.48
2022-09-24T03:56:21.127Z,10.25
2022-09-24T03:58:48.549Z,10.60
2022-09-24T04:01:20.833Z,10.63
2022-09-24T04:03:49.239Z,10.63
2022-09-24T04:06:20.729Z,10.38
2022-09-24T04:08:50.839Z,10.32
2022-09-24T04:11:18.027Z,10.57
2022-09-24T04:13:45.445Z,10.61
2022-09-24T04:16:12.730Z,10.60
2022-09-24T04:18:40.083Z,10.30
2022-09-24T04:21:07.437Z,10.40
2022-09-24T04:23:34.980Z,10.55
2022-09-24T04:26:02.697Z,10.59
2022-09-24T04:28:30.785Z,10.53
2022-09-24T04:30:58.672Z,10.52
2022-09-24T04:33:26.557Z,10.53
2022-09-24T04:35:53.751Z,10.58
2022-09-24T04:38:21.524Z,10.25
2022-09-24T04:40:49.521Z,10.61
2022-09-24T04:43:19.479Z,10.52
2022-09-24T04:45:47.021Z,10.57
2022-09-24T04:48:14.503Z,10.35
2022-09-24T04:50:45.741Z,10.59
2022-09-24T04:53:13.702Z,10.57
2022-09-24T04:55:42.037Z,10.49
2022-09-24T04:58:10.023Z,10.32
2022-09-24T05:00:37.998Z,10.55
2022-09-24T05:03:05.779Z,10.59
2022-09-24T05:05:34.177Z,10.59
2022-09-24T05:08:02.021Z,10.59
2022-09-24T05:10:31.964Z,10.53
2022-09-24T05:12:59.895Z,10.59
2022-09-24T05:15:27.198Z,10.51
2022-09-24T05:17:54.463Z,10.40
2022-09-24T05:20:21.777Z,10.58
2022-09-24T05:22:50.216Z,10.63
2022-09-24T05:25:19.577Z,10.65
2022-09-24T05:27:48.559Z,10.66
2022-09-24T05:30:17.509Z,10.67
2022-09-24T05:32:45.026Z,10.71
2022-09-24T05:35:13.896Z,10.48
2022-09-24T05:37:41.354Z,10.76
2022-09-24T05:40:27.205Z,10.78
2022-09-24T05:43:03.513Z,10.82
2022-09-24T05:45:31.914Z,10.64
2022-09-24T05:48:01.709Z,10.88
2022-09-24T05:50:29.002Z,10.90
2022-09-24T05:52:56.404Z,10.93
2022-09-24T05:55:23.689Z,10.84
2022-09-24T05:57:50.873Z,11.07
2022-09-24T06:00:18.024Z,11.09
2022-09-24T06:02:45.238Z,10.80
2022-09-24T06:05:13.116Z,11.01
2022-09-24T06:07:40.417Z,11.05
2022-09-24T06:10:08.607Z,11.19
2022-09-24T06:12:35.874Z,11.16
2022-09-24T06:15:03.484Z,11.25
2022-09-24T06:17:32.732Z,11.04
2022-09-24T06:19:59.892Z,11.26
2022-09-24T06:22:29.096Z,11.33
2022-09-24T06:24:56.480Z,11.32
2022-09-24T06:27:24.217Z,11.38
2022-09-24T06:29:51.234Z,11.34
2022-09-24T06:32:19.997Z,11.13
2022-09-24T06:34:47.800Z,11.24
2022-09-24T06:37:15.118Z,11.43
2022-09-24T06:39:42.794Z,11.42
2022-09-24T06:42:10.049Z,11.56
2022-09-24T06:44:37.321Z,11.40
2022-09-24T06:47:04.624Z,11.50
2022-09-24T06:49:34.274Z,10.85
2022-09-24T06:52:02.641Z,11.37
2022-09-24T06:54:29.857Z,11.78
2022-09-24T06:56:57.105Z,11.77
2022-09-24T06:59:24.416Z,11.89
2022-09-24T07:01:51.588Z,11.91
2022-09-24T07:04:18.881Z,11.92
2022-09-24T07:07:04.570Z,11.90
2022-09-24T07:09:31.938Z,11.71
2022-09-24T07:12:01.817Z,11.95
2022-09-24T07:14:28.894Z,12.05
2022-09-24T07:16:56.092Z,12.08
2022-09-24T07:19:23.406Z,11.98
2022-09-24T07:21:50.503Z,12.24
2022-09-24T07:24:18.962Z,12.26
2022-09-24T07:26:46.574Z,12.44
2022-09-24T07:29:13.820Z,12.53
2022-09-24T07:31:41.177Z,12.32
2022-09-24T07:34:09.312Z,12.58
2022-09-24T07:36:36.852Z,12.71
2022-09-24T07:39:04.412Z,12.39
2022-09-24T07:41:31.836Z,12.68
2022-09-24T07:43:59.349Z,12.75
2022-09-24T07:46:27.042Z,12.72
2022-09-24T07:48:56.606Z,12.86
2022-09-24T07:51:26.267Z,12.89
2022-09-24T07:53:53.959Z,12.79
2022-09-24T07:56:22.254Z,12.94
2022-09-24T07:58:50.606Z,13.03
2022-09-24T08:01:18.780Z,12.85
2022-09-24T08:03:46.687Z,12.76
2022-09-24T08:06:13.911Z,12.64
2022-09-24T08:08:41.245Z,12.98
2022-09-24T08:11:12.769Z,13.25
2022-09-24T08:13:40.370Z,13.19
2022-09-24T08:16:07.529Z,13.36
2022-09-24T08:18:35.897Z,13.38
2022-09-24T08:21:07.701Z,13.48
2022-09-24T08:23:35.419Z,13.45
2022-09-24T08:26:03.194Z,13.27
2022-09-24T08:28:31.801Z,13.54
2022-09-24T08:31:00.712Z,13.72
2022-09-24T08:33:29.117Z,13.73
2022-09-24T08:35:56.183Z,13.42
2022-09-24T08:38:23.344Z,13.86
2022-09-24T08:41:01.022Z,13.85
2022-09-24T08:43:54.683Z,13.82
2022-09-24T08:46:51.190Z,13.90
2022-09-24T08:49:24.739Z,14.00
2022-09-24T08:52:18.757Z,14.04
2022-09-24T08:54:47.044Z,13.93
2022-09-24T08:57:21.098Z,14.12
2022-09-24T08:59:52.242Z,13.80
2022-09-24T09:02:40.344Z,14.03
2022-09-24T09:05:43.754Z,14.17
2022-09-24T09:08:48.916Z,14.20
2022-09-24T09:11:15.577Z,14.27
2022-09-24T09:14:15.203Z,14.33
2022-09-24T09:17:17.193Z,14.43
2022-09-24T09:19:53.526Z,14.48
2022-09-24T09:22:24.180Z,14.55
2022-09-24T09:24:52.447Z,14.63
2022-09-24T09:27:21.038Z,14.73
2022-09-24T09:29:57.786Z,14.81
2022-09-24T09:32:38.674Z,14.76
2022-09-24T09:35:19.697Z,15.02
2022-09-24T09:38:23.771Z,15.19
2022-09-24T09:41:03.888Z,15.27
2022-09-24T09:43:31.196Z,15.26
2022-09-24T09:46:16.101Z,15.38
2022-09-24T09:48:52.459Z,15.44
2022-09-24T09:51:23.018Z,15.49
2022-09-24T09:54:08.959Z,15.49
2022-09-24T09:56:44.281Z,15.63
2022-09-24T09:59:11.527Z,15.66
2022-09-24T10:01:45.673Z,15.66
2022-09-24T10:04:41.776Z,15.70
2022-09-24T10:07:11.854Z,15.81
2022-09-24T10:09:40.770Z,15.88
2022-09-24T10:12:09.337Z,15.99
2022-09-24T10:14:36.624Z,16.05
2022-09-24T10:17:06.032Z,16.09
2022-09-24T10:19:37.034Z,15.97
2022-09-24T10:22:11.313Z,16.24
2022-09-24T10:24:43.896Z,16.36
2022-09-24T10:27:20.828Z,16.23
2022-09-24T10:30:07.122Z,15.91
2022-09-24T10:32:34.295Z,16.19
2022-09-24T10:35:06.299Z,16.16
2022-09-24T10:37:33.524Z,15.95
2022-09-24T10:40:04.261Z,15.98
2022-09-24T10:42:31.785Z,16.13
2022-09-24T10:45:01.925Z,16.18
2022-09-24T10:47:41.503Z,16.40
2022-09-24T10:50:27.911Z,16.60
2022-09-24T10:53:04.149Z,16.58
2022-09-24T10:55:41.891Z,16.80
2022-09-24T10:58:44.490Z,16.96
2022-09-24T11:01:24.192Z,17.04
2022-09-24T11:04:10.383Z,17.07
2022-09-24T11:07:05.057Z,17.05
2022-09-24T11:09:44.576Z,16.91
2022-09-24T11:12:20.723Z,16.86
2022-09-24T11:15:00.908Z,16.78
2022-09-24T11:17:43.574Z,17.04
2022-09-24T11:20:39.814Z,17.05
2022-09-24T11:23:15.863Z,17.17
2022-09-24T11:26:01.422Z,17.33
2022-09-24T11:28:40.337Z,17.45
2022-09-24T11:31:10.213Z,17.52
2022-09-24T11:34:03.548Z,16.95
2022-09-24T11:36:42.460Z,17.39
2022-09-24T11:39:27.509Z,17.39
2022-09-24T11:41:57.933Z,17.47
2022-09-24T11:44:27.835Z,17.46
2022-09-24T11:47:13.263Z,17.47
2022-09-24T11:49:49.763Z,17.50
2022-09-24T11:52:37.655Z,17.41
2022-09-24T11:55:10.641Z,17.20
2022-09-24T11:58:02.038Z,16.63
2022-09-24T12:00:40.853Z,17.10
2022-09-24T12:04:06.443Z,17.17
2022-09-24T12:06:52.807Z,17.35
2022-09-24T12:09:41.457Z,17.46
2022-09-24T12:12:22.344Z,17.44
2022-09-24T12:15:05.227Z,17.63
2022-09-24T12:17:45.622Z,17.63
2022-09-24T12:20:12.946Z,17.58
2022-09-24T12:22:42.905Z,17.60
2022-09-24T12:25:13.197Z,17.47
2022-09-24T12:27:40.322Z,17.46
2022-09-24T12:30:40.783Z,17.42
2022-09-24T12:33:13.805Z,17.38
2022-09-24T12:35:56.227Z,17.22
2022-09-24T12:38:37.988Z,17.11
2022-09-24T12:41:20.353Z,17.05
2022-09-24T12:44:02.207Z,16.96
2022-09-24T12:46:38.734Z,16.89
2022-09-24T12:49:26.433Z,16.83
2022-09-24T12:51:56.003Z,16.74
2022-09-24T12:54:28.857Z,16.56
2022-09-24T12:57:24.967Z,16.57
2022-09-24T13:00:01.854Z,16.51
2022-09-24T13:02:31.714Z,16.47
2022-09-24T13:05:01.901Z,16.43
2022-09-24T13:07:36.485Z,16.43
2022-09-24T13:10:24.058Z,16.40
2022-09-24T13:12:52.125Z,16.22
2022-09-24T13:15:33.053Z,16.21
2022-09-24T13:18:25.441Z,16.31
2022-09-24T13:21:18.043Z,16.35
2022-09-24T13:23:49.790Z,16.38
2022-09-24T13:26:30.522Z,16.33
2022-09-24T13:29:06.862Z,16.21
2022-09-24T13:31:49.120Z,16.33
2022-09-24T13:34:27.729Z,16.49
2022-09-24T13:37:02.526Z,16.53
2022-09-24T13:40:00.330Z,16.54
2022-09-24T13:42:34.384Z,16.60
2022-09-24T13:45:09.352Z,16.57
2022-09-24T13:47:56.950Z,16.58
2022-09-24T13:50:40.586Z,16.58
2022-09-24T13:53:40.162Z,16.32
2022-09-24T13:56:14.533Z,16.63
2022-09-24T13:58:43.357Z,16.66
2022-09-24T14:01:17.805Z,16.67
2022-09-24T14:03:57.940Z,16.68
2022-09-24T14:06:38.035Z,16.67
2022-09-24T14:09:17.400Z,16.65
2022-09-24T14:11:52.788Z,16.64
2022-09-24T14:14:24.951Z,16.63
2022-09-24T14:16:55.319Z,16.59
2022-09-24T14:19:23.789Z,16.59
2022-09-24T14:21:57.807Z,16.55
2022-09-24T14:24:30.380Z,16.55
2022-09-24T14:27:06.097Z,16.52
2022-09-24T14:29:48.242Z,16.29
2022-09-24T14:32:24.693Z,16.45
2022-09-24T14:34:54.982Z,16.42
2022-09-24T14:37:27.804Z,16.44
2022-09-24T14:40:02.722Z,16.38
2022-09-24T14:42:42.317Z,16.23
2022-09-24T14:45:17.174Z,16.34
2022-09-24T14:47:44.644Z,16.07
2022-09-24T14:50:35.979Z,16.12
2022-09-24T14:53:13.359Z,16.30
2022-09-24T14:55:43.050Z,16.08
2022-09-24T14:58:39.239Z,16.24
2022-09-24T15:01:15.816Z,16.18
2022-09-24T15:03:49.630Z,16.14
2022-09-24T15:06:19.839Z,16.13
2022-09-24T15:09:30.087Z,16.04
2022-09-24T15:12:08.353Z,15.93
2022-09-24T15:14:37.128Z,15.85
2022-09-24T15:17:21.093Z,15.91
2022-09-24T15:19:48.319Z,15.86
2022-09-24T15:22:15.789Z,15.85
2022-09-24T15:24:43.069Z,15.78
2022-09-24T15:27:27.593Z,15.79
2022-09-24T15:29:56.954Z,15.57
2022-09-24T15:32:24.384Z,15.77
2022-09-24T15:34:51.408Z,15.36
2022-09-24T15:37:22.031Z,15.72
2022-09-24T15:39:50.571Z,15.65
2022-09-24T15:42:19.859Z,15.64
2022-09-24T15:44:48.152Z,15.49
2022-09-24T15:47:15.354Z,15.56
2022-09-24T15:49:42.829Z,15.51
2022-09-24T15:52:16.545Z,15.46
2022-09-24T15:54:43.639Z,15.39
2022-09-24T15:57:13.934Z,15.38
2022-09-24T15:59:41.104Z,15.38
2022-09-24T16:02:37.234Z,15.26
2022-09-24T16:05:11.510Z,15.34
2022-09-24T16:07:38.764Z,15.29
2022-09-24T16:10:06.637Z,15.32
2022-09-24T16:12:34.023Z,14.95
2022-09-24T16:15:01.368Z,15.25
2022-09-24T16:17:29.058Z,15.08
2022-09-24T16:19:56.553Z,15.19
2022-09-24T16:22:24.431Z,15.17
2022-09-24T16:24:51.621Z,15.09
2022-09-24T16:27:18.879Z,15.07
2022-09-24T16:29:46.033Z,14.85
2022-09-24T16:32:14.118Z,14.98
2022-09-24T16:34:41.893Z,14.93
2022-09-24T16:37:09.805Z,14.87
2022-09-24T16:39:37.280Z,14.81
2022-09-24T16:42:04.740Z,14.60
2022-09-24T16:44:31.931Z,14.70
2022-09-24T16:46:59.142Z,14.56
2022-09-24T16:49:26.551Z,14.54
2022-09-24T16:51:53.957Z,14.51
2022-09-24T16:54:23.032Z,14.45
2022-09-24T16:56:52.372Z,14.43
2022-09-24T16:59:19.885Z,14.34
2022-09-24T17:01:47.303Z,14.24
2022-09-24T17:04:14.652Z,14.05
2022-09-24T17:06:44.772Z,14.14
2022-09-24T17:09:30.397Z,13.89
2022-09-24T17:11:58.160Z,13.77
2022-09-24T17:14:25.695Z,13.98
2022-09-24T17:16:53.037Z,13.83
2022-09-24T17:19:20.457Z,13.56
2022-09-24T17:21:50.648Z,13.58
2022-09-24T17:24:21.392Z,13.53
2022-09-24T17:26:50.030Z,13.71
2022-09-24T17:29:20.836Z,13.73
2022-09-24T17:31:49.408Z,13.71
2022-09-24T17:34:16.822Z,13.57
2022-09-24T17:36:44.099Z,13.50
2022-09-24T17:39:13.802Z,13.61
2022-09-24T17:41:41.842Z,13.35
2022-09-24T17:44:10.933Z,13.32
2022-09-24T17:46:38.402Z,13.54
2022-09-24T17:49:06.138Z,13.53
2022-09-24T17:51:36.682Z,13.50
2022-09-24T17:54:09.793Z,13.48
2022-09-24T17:56:40.634Z,13.40
2022-09-24T17:59:10.150Z,13.11
2022-09-24T18:01:39.369Z,13.39
2022-09-24T18:04:10.624Z,13.34
2022-09-24T18:06:40.402Z,13.38
2022-09-24T18:09:09.416Z,13.37
2022-09-24T18:11:42.431Z,13.35
2022-09-24T18:14:14.975Z,13.30
2022-09-24T18:16:42.379Z,13.29
2022-09-24T18:19:11.179Z,13.15
2022-09-24T18:21:38.863Z,13.34
2022-09-24T18:24:06.119Z,13.32
2022-09-24T18:26:36.094Z,13.29
2022-09-24T18:29:16.010Z,13.27
2022-09-24T18:31:44.962Z,13.19
2022-09-24T18:34:15.220Z,13.21
2022-09-24T18:36:44.379Z,13.09
2022-09-24T18:39:13.814Z,13.17
2022-09-24T18:41:42.309Z,13.17
2022-09-24T18:44:10.694Z,12.84
2022-09-24T18:46:38.099Z,12.84
2022-09-24T18:49:06.709Z,13.16
2022-09-24T18:51:36.661Z,13.11
2022-09-24T18:54:11.433Z,13.14
2022-09-24T18:56:38.975Z,13.04
2022-09-24T18:59:11.006Z,13.13
2022-09-24T19:01:39.807Z,13.15
2022-09-24T19:04:11.110Z,12.89
2022-09-24T19:06:41.023Z,13.15
2022-09-24T19:09:09.394Z,12.96
2022-09-24T19:11:37.181Z,13.16
2022-09-24T19:14:04.714Z,13.16
2022-09-24T19:16:32.802Z,12.50
2022-09-24T19:19:01.902Z,13.11
2022-09-24T19:21:29.643Z,13.00
2022-09-24T19:23:58.752Z,13.17
2022-09-24T19:26:29.485Z,13.13
2022-09-24T19:28:57.466Z,13.15
2022-09-24T19:31:33.443Z,13.15
2022-09-24T19:34:04.697Z,13.16
2022-09-24T19:36:38.698Z,13.16
2022-09-24T19:39:14.019Z,13.11
2022-09-24T19:41:41.364Z,13.14
2022-09-24T19:44:13.094Z,13.13
2022-09-24T19:46:41.233Z,13.09
2022-09-24T19:49:08.862Z,13.05
2022-09-24T19:51:36.700Z,13.04
2022-09-24T19:54:09.302Z,13.00
2022-09-24T19:56:37.223Z,12.79
2022-09-24T19:59:05.027Z,12.78
2022-09-24T20:01:33.666Z,12.68
2022-09-24T20:04:04.432Z,12.91
2022-09-24T20:06:34.137Z,12.90
2022-09-24T20:09:01.993Z,12.65
2022-09-24T20:11:33.084Z,12.73
2022-09-24T20:14:01.634Z,12.82
2022-09-24T20:16:32.840Z,12.83
2022-09-24T20:19:01.952Z,12.83
2022-09-24T20:21:34.948Z,12.80
2022-09-24T20:24:04.224Z,12.77
2022-09-24T20:26:50.869Z,12.71
2022-09-24T20:29:22.016Z,12.62
2022-09-24T20:31:52.366Z,12.64
2022-09-24T20:34:22.469Z,12.55
2022-09-24T20:36:50.887Z,12.54
2022-09-24T20:39:18.958Z,12.44
2022-09-24T20:41:46.288Z,12.51
2022-09-24T20:44:14.226Z,12.49
2022-09-24T20:46:41.415Z,12.19
2022-09-24T20:49:14.333Z,12.13
2022-09-24T20:51:41.532Z,12.46
2022-09-24T20:54:08.846Z,12.39
2022-09-24T20:56:35.951Z,12.39
2022-09-24T20:59:03.872Z,12.35
2022-09-24T21:01:31.372Z,11.98
2022-09-24T21:03:58.587Z,12.29
2022-09-24T21:06:26.055Z,12.28
2022-09-24T21:08:53.503Z,12.35
2022-09-24T21:11:26.875Z,12.08
2022-09-24T21:13:56.460Z,12.23
2022-09-24T21:16:26.681Z,12.30
2022-09-24T21:18:56.830Z,12.28
2022-09-24T21:21:27.202Z,12.22
2022-09-24T21:23:54.883Z,12.17
2022-09-24T21:26:29.479Z,12.18
2022-09-24T21:29:00.422Z,12.19
2022-09-24T21:31:30.207Z,12.19
2022-09-24T21:33:58.047Z,12.06
2022-09-24T21:36:29.440Z,12.15
2022-09-24T21:38:59.101Z,12.14
2022-09-24T21:41:31.344Z,12.13
2022-09-24T21:43:58.932Z,12.13
2022-09-24T21:46:28.550Z,12.15
2022-09-24T21:48:56.445Z,12.18
2022-09-24T21:51:24.607Z,12.20
2022-09-24T21:53:58.003Z,12.18
2022-09-24T21:56:25.479Z,12.22
2022-09-24T21:58:54.211Z,12.20
2022-09-24T22:01:27.961Z,12.22
2022-09-24T22:03:57.354Z,12.26
2022-09-24T22:06:29.827Z,11.71
2022-09-24T22:09:01.098Z,12.15
2022-09-24T22:11:29.220Z,12.20
2022-09-24T22:14:01.444Z,12.16
2022-09-24T22:16:30.337Z,12.18
2022-09-24T22:18:58.580Z,12.19
2022-09-24T22:21:26.363Z,12.18
2022-09-24T22:23:54.960Z,12.23
2022-09-24T22:26:22.404Z,12.26
2022-09-24T22:28:49.762Z,11.92
2022-09-24T22:31:18.493Z,12.27
2022-09-24T22:34:04.668Z,12.28
2022-09-24T22:36:33.581Z,11.73
2022-09-24T22:39:01.646Z,11.52
2022-09-24T22:41:30.219Z,12.24
2022-09-24T22:43:58.175Z,12.22
2022-09-24T22:46:27.672Z,12.18
2022-09-24T22:48:56.440Z,12.15
2022-09-24T22:51:24.917Z,12.09
2022-09-24T22:53:52.580Z,12.18
2022-09-24T22:56:22.493Z,12.17
2022-09-24T22:58:55.667Z,12.17
2022-09-24T23:01:29.248Z,12.14
2022-09-24T23:03:57.785Z,12.11
2022-09-24T23:06:25.422Z,12.09
2022-09-24T23:08:54.842Z,12.14
2022-09-24T23:11:26.293Z,12.17
2022-09-24T23:13:56.506Z,12.16
2022-09-24T23:16:37.803Z,12.16
2022-09-24T23:19:07.763Z,12.05
2022-09-24T23:21:35.624Z,12.14
2022-09-24T23:24:05.831Z,12.08
2022-09-24T23:26:33.610Z,12.04
2022-09-24T23:29:01.596Z,12.13
2022-09-24T23:31:31.911Z,12.12
2022-09-24T23:34:01.478Z,12.10
2022-09-24T23:36:31.377Z,12.09
2022-09-24T23:39:02.490Z,12.09
2022-09-24T23:41:31.754Z,12.07
2022-09-24T23:43:59.673Z,12.05
2022-09-24T23:46:27.762Z,11.97
2022-09-24T23:48:56.078Z,11.96
2022-09-24T23:51:23.694Z,11.96
2022-09-24T23:53:51.564Z,11.94
2022-09-24T23:56:20.052Z,11.92
2022-09-24T23:58:47.422Z,11.51
